createdAt,value
2022-12-07T08:28:26.753Z,6.94
2022-12-07T08:31:01.206Z,6.97
2022-12-07T08:33:28.918Z,7.02
2022-12-07T08:36:02.029Z,7.15
2022-12-07T08:38:31.899Z,7.19
2022-12-07T08:41:00.648Z,7.16
2022-12-07T08:43:28.432Z,7.34
2022-12-07T08:46:39.316Z,7.25
2022-12-07T08:49:33.698Z,7.22
2022-12-07T08:52:01.184Z,7.26
2022-12-07T08:54:29.998Z,7.29
2022-12-07T08:56:59.763Z,7.43
2022-12-07T08:59:29.265Z,7.31
2022-12-07T09:01:56.815Z,7.17
2022-12-07T09:04:24.247Z,7.48
2022-12-07T09:06:51.974Z,7.22
2022-12-07T09:09:19.414Z,7.18
2022-12-07T09:11:57.948Z,7.27
2022-12-07T09:14:26.151Z,7.21
2022-12-07T09:16:53.496Z,6.96
2022-12-07T09:19:21.075Z,6.97
2022-12-07T09:21:48.509Z,6.93
2022-12-07T09:24:15.954Z,7.22
2022-12-07T09:26:43.326Z,7.19
2022-12-07T09:29:10.681Z,7.28
2022-12-07T09:31:39.483Z,7.25
2022-12-07T09:34:07.320Z,7.22
2022-12-07T09:36:35.637Z,7.13
2022-12-07T09:39:05.611Z,7.13
2022-12-07T09:41:34.060Z,7.12
2022-12-07T09:44:18.113Z,7.20
2022-12-07T09:46:47.094Z,7.26
2022-12-07T09:49:23.175Z,7.32
2022-12-07T09:52:13.805Z,7.06
2022-12-07T09:54:51.675Z,7.30
2022-12-07T09:57:33.086Z,7.50
2022-12-07T10:00:16.541Z,7.18
2022-12-07T10:02:58.286Z,7.49
2022-12-07T10:05:45.797Z,7.34
2022-12-07T10:08:14.977Z,7.88
2022-12-07T10:10:42.968Z,7.80
2022-12-07T10:13:22.541Z,7.65
2022-12-07T10:16:05.185Z,7.82
2022-12-07T10:18:45.430Z,8.01
2022-12-07T10:21:25.163Z,8.12
2022-12-07T10:24:11.358Z,7.82
2022-12-07T10:26:54.670Z,7.65
2022-12-07T10:29:40.394Z,8.14
2022-12-07T10:32:36.301Z,7.87
2022-12-07T10:35:30.281Z,7.66
2022-12-07T10:38:01.041Z,7.91
2022-12-07T10:40:38.748Z,7.51
2022-12-07T10:43:20.702Z,7.73
2022-12-07T10:47:00.679Z,7.49
2022-12-07T10:49:50.214Z,7.19
2022-12-07T10:53:16.586Z,6.98
2022-12-07T10:56:56.978Z,7.42
2022-12-07T11:00:04.002Z,7.77
2022-12-07T11:04:25.574Z,8.11
2022-12-07T11:07:23.215Z,7.69
2022-12-07T11:10:19.414Z,8.72
2022-12-07T11:14:26.333Z,8.14
2022-12-07T11:18:20.044Z,8.04
2022-12-07T11:21:43.743Z,8.19
2022-12-07T11:24:49.844Z,8.58
2022-12-07T11:27:47.665Z,8.89
2022-12-07T11:30:26.170Z,8.94
2022-12-07T11:33:26.976Z,9.35
2022-12-07T11:36:37.742Z,9.57
2022-12-07T11:39:43.487Z,9.02
2022-12-07T11:42:38.031Z,9.24
2022-12-07T11:45:27.956Z,9.93
2022-12-07T11:48:23.610Z,9.30
2022-12-07T11:50:58.171Z,9.35
2022-12-07T11:53:50.490Z,10.13
2022-12-07T11:56:23.827Z,9.94
2022-12-07T11:59:21.918Z,9.90
2022-12-07T12:02:32.846Z,10.12
2022-12-07T12:05:24.976Z,10.43
2022-12-07T12:16:22.185Z,9.37
2022-12-07T12:19:23.659Z,9.71
2022-12-07T12:22:18.403Z,10.10
2022-12-07T12:24:53.134Z,10.13
2022-12-07T12:27:37.205Z,10.43
2022-12-07T12:30:39.078Z,10.24
2022-12-07T12:33:32.053Z,9.64
2022-12-07T12:36:22.185Z,8.98
2022-12-07T12:38:59.899Z,9.29
2022-12-07T12:41:39.126Z,9.54
2022-12-07T12:44:19.538Z,9.43
2022-12-07T12:46:59.427Z,9.11
2022-12-07T12:49:26.542Z,9.22
2022-12-07T12:52:39.775Z,9.24
2022-12-07T12:55:10.032Z,9.36
2022-12-07T12:57:38.421Z,9.69
2022-12-07T13:00:23.333Z,9.27
2022-12-07T13:02:57.526Z,9.57
2022-12-07T13:05:32.205Z,9.58
2022-12-07T13:08:27.050Z,9.34
2022-12-07T13:11:40.705Z,9.37
2022-12-07T13:14:41.713Z,9.36
2022-12-07T13:17:33.828Z,8.99
2022-12-07T13:20:12.776Z,9.37
2022-12-07T13:22:50.340Z,8.96
2022-12-07T13:25:37.388Z,9.24
2022-12-07T13:28:22.730Z,9.47
2022-12-07T13:31:34.697Z,9.27
2022-12-07T13:34:33.670Z,9.03
2022-12-07T13:37:36.710Z,8.82
2022-12-07T13:40:23.859Z,8.91
2022-12-07T13:43:13.818Z,8.82
2022-12-07T13:45:52.550Z,8.78
2022-12-07T13:48:48.844Z,8.88
2022-12-07T13:51:35.069Z,8.87
2022-12-07T13:54:12.691Z,9.34
2022-12-07T13:56:41.027Z,8.90
2022-12-07T13:59:26.194Z,9.13
2022-12-07T14:01:54.911Z,9.22
2022-12-07T14:04:39.278Z,9.18
2022-12-07T14:07:28.841Z,8.98
2022-12-07T14:10:49.402Z,9.09
2022-12-07T14:13:51.035Z,9.25
2022-12-07T14:16:38.052Z,9.33
2022-12-07T14:19:48.679Z,9.14
2022-12-07T14:22:39.235Z,9.14
2022-12-07T14:25:19.179Z,9.00
2022-12-07T14:27:59.346Z,9.15
2022-12-07T14:30:35.254Z,9.21
2022-12-07T14:33:06.648Z,8.92
2022-12-07T14:35:34.380Z,8.93
2022-12-07T14:38:01.715Z,8.66
2022-12-07T14:40:31.163Z,8.97
2022-12-07T14:43:13.997Z,9.05
2022-12-07T14:45:42.685Z,9.18
2022-12-07T14:53:57.305Z,8.78
2022-12-07T14:56:26.607Z,8.84
2022-12-07T14:58:53.971Z,8.74
2022-12-07T15:01:21.442Z,8.78
2022-12-07T15:03:48.925Z,8.63
2022-12-07T15:06:19.822Z,8.69
2022-12-07T15:08:47.737Z,8.71
2022-12-07T15:11:18.216Z,8.75
2022-12-07T15:14:04.201Z,8.99
2022-12-07T15:16:52.566Z,8.89
2022-12-07T15:19:28.960Z,8.49
2022-12-07T15:22:01.062Z,8.41
2022-12-07T15:24:28.711Z,8.72
2022-12-07T15:26:56.085Z,8.62
2022-12-07T15:29:24.147Z,8.95
2022-12-07T15:31:57.050Z,8.53
2022-12-07T15:34:33.487Z,8.55
2022-12-07T15:37:05.732Z,8.62
2022-12-07T15:39:33.376Z,8.43
2022-12-07T15:42:00.780Z,8.36
2022-12-07T15:44:46.617Z,8.38
2022-12-07T15:47:14.047Z,8.46
2022-12-07T15:49:41.753Z,8.47
2022-12-07T15:52:09.159Z,8.43
2022-12-07T15:54:36.532Z,8.26
2022-12-07T15:57:04.063Z,8.26
2022-12-07T15:59:31.587Z,8.32
2022-12-07T16:01:59.960Z,8.27
2022-12-07T16:04:30.534Z,8.43
2022-12-07T16:06:58.507Z,8.36
2022-12-07T16:09:26.393Z,8.25
2022-12-07T16:11:53.876Z,8.20
2022-12-07T16:14:21.682Z,8.30
2022-12-07T16:16:49.883Z,8.10
2022-12-07T16:19:17.245Z,8.00
2022-12-07T16:21:44.861Z,7.84
2022-12-07T16:24:13.668Z,7.93
2022-12-07T16:26:46.296Z,8.05
2022-12-07T16:29:20.037Z,8.24
2022-12-07T16:31:49.397Z,8.23
2022-12-07T16:34:16.953Z,8.39
2022-12-07T16:39:34.324Z,7.92
2022-12-07T16:42:02.135Z,7.82
2022-12-07T16:44:29.634Z,7.80
2022-12-07T16:46:57.194Z,7.72
2022-12-07T16:49:25.202Z,8.11
2022-12-07T16:52:14.791Z,8.17
2022-12-07T16:54:40.871Z,8.15
2022-12-07T16:57:08.255Z,7.97
2022-12-07T16:59:35.634Z,7.65
2022-12-07T17:02:03.207Z,7.73
2022-12-07T17:04:31.011Z,7.81
2022-12-07T17:06:59.426Z,7.71
2022-12-07T17:09:27.120Z,7.86
2022-12-07T17:11:54.457Z,7.78
2022-12-07T17:14:40.332Z,7.67
2022-12-07T17:17:07.778Z,7.63
2022-12-07T17:19:35.248Z,7.50
2022-12-07T17:22:02.674Z,7.28
2022-12-07T17:24:30.157Z,7.40
2022-12-07T17:26:57.512Z,7.41
2022-12-07T17:29:24.891Z,7.23
2022-12-07T17:31:52.373Z,7.31
2022-12-07T17:34:19.974Z,7.55
2022-12-07T17:36:47.995Z,7.48
2022-12-07T17:39:19.510Z,7.63
2022-12-07T17:42:06.786Z,7.32
2022-12-07T17:44:34.222Z,7.39
2022-12-07T17:47:03.924Z,7.44
2022-12-07T17:49:31.901Z,7.33
2022-12-07T17:52:17.734Z,7.20
2022-12-07T17:54:45.198Z,6.99
2022-12-07T17:57:12.647Z,6.98
2022-12-07T17:59:40.067Z,6.90
2022-12-07T18:02:08.796Z,6.85
2022-12-07T18:04:36.213Z,7.03
2022-12-07T18:07:06.730Z,6.99
2022-12-07T18:09:34.066Z,7.10
2022-12-07T18:12:02.600Z,7.09
2022-12-07T18:14:30.038Z,7.14
2022-12-07T18:16:57.517Z,6.92
2022-12-07T18:19:25.122Z,7.01
2022-12-07T18:21:52.507Z,6.99
2022-12-07T18:24:20.002Z,6.97
2022-12-07T18:26:48.235Z,6.88
2022-12-07T18:29:18.578Z,6.90
2022-12-07T18:31:47.724Z,6.88
2022-12-07T18:34:19.038Z,6.97
2022-12-07T18:36:53.206Z,6.89
2022-12-07T18:39:20.917Z,6.73
2022-12-07T18:41:49.043Z,6.34
2022-12-07T18:44:18.614Z,6.33
2022-12-07T18:46:46.462Z,6.22
2022-12-07T18:49:15.670Z,6.35
2022-12-07T18:51:45.248Z,6.48
2022-12-07T18:54:12.678Z,6.44
2022-12-07T18:56:40.180Z,6.02
2022-12-07T18:59:26.774Z,6.11
2022-12-07T19:01:55.267Z,6.05
2022-12-07T19:04:23.322Z,5.87
2022-12-07T19:06:51.621Z,5.76
2022-12-07T19:09:20.044Z,5.73
2022-12-07T19:11:51.173Z,5.75
2022-12-07T19:14:23.966Z,5.77
2022-12-07T19:16:59.440Z,5.55
2022-12-07T19:19:40.059Z,5.62
2022-12-07T19:22:13.117Z,5.94
2022-12-07T19:24:40.877Z,5.99
2022-12-07T19:27:09.357Z,5.99
2022-12-07T19:29:36.710Z,5.98
2022-12-07T19:32:08.704Z,6.03
2022-12-07T19:34:43.365Z,6.20
2022-12-07T19:37:12.896Z,6.14
2022-12-07T19:39:43.789Z,5.99
2022-12-07T19:42:12.397Z,5.94
2022-12-07T19:44:39.842Z,5.95
2022-12-07T19:47:07.326Z,6.10
2022-12-07T19:49:36.708Z,6.13
2022-12-07T19:52:09.246Z,5.91
2022-12-07T19:54:37.476Z,5.92
2022-12-07T19:57:07.573Z,5.96
2022-12-07T19:59:35.395Z,5.96
2022-12-07T20:02:02.860Z,5.81
2022-12-07T20:04:35.613Z,5.72
2022-12-07T20:07:03.615Z,5.88
2022-12-07T20:09:31.047Z,5.83
2022-12-07T20:12:17.072Z,5.76
2022-12-07T20:14:44.386Z,5.80
2022-12-07T20:17:11.874Z,5.86
2022-12-07T20:19:40.464Z,5.75
2022-12-07T20:22:08.839Z,5.45
2022-12-07T20:24:36.535Z,5.57
2022-12-07T20:27:05.259Z,5.49
2022-12-07T20:29:32.904Z,5.34
2022-12-07T20:32:00.375Z,5.44
2022-12-07T20:34:27.802Z,5.57
2022-12-07T20:36:56.032Z,5.59
2022-12-07T20:39:24.210Z,5.54
2022-12-07T20:42:10.463Z,5.64
2022-12-07T20:44:38.217Z,5.54
2022-12-07T20:47:07.034Z,5.57
2022-12-07T20:49:34.835Z,5.61
2022-12-07T20:52:02.766Z,5.59
2022-12-07T20:54:30.282Z,5.53
2022-12-07T20:56:57.746Z,5.38
2022-12-07T20:59:25.195Z,5.38
2022-12-07T21:01:53.349Z,5.34
2022-12-07T21:04:20.853Z,5.38
2022-12-07T21:06:48.384Z,5.14
2022-12-07T21:09:15.700Z,5.45
2022-12-07T21:11:43.095Z,5.40
2022-12-07T21:14:10.572Z,5.34
2022-12-07T21:16:38.004Z,5.31
2022-12-07T21:19:06.070Z,5.17
2022-12-07T21:21:34.781Z,5.14
2022-12-07T21:24:05.221Z,5.14
2022-12-07T21:26:36.118Z,5.20
2022-12-07T21:29:07.270Z,5.24
2022-12-07T21:31:35.668Z,5.17
2022-12-07T21:34:08.101Z,4.95
2022-12-07T21:36:36.425Z,5.13
2022-12-07T21:39:05.310Z,5.12
2022-12-07T21:41:35.844Z,5.09
2022-12-07T21:44:07.025Z,5.04
2022-12-07T21:46:35.072Z,5.21
2022-12-07T21:49:10.989Z,5.16
2022-12-07T21:51:40.738Z,5.18
2022-12-07T21:54:08.843Z,5.31
2022-12-07T21:56:42.112Z,5.16
2022-12-07T21:59:15.855Z,5.08
2022-12-07T22:01:47.443Z,4.86
2022-12-07T22:04:20.824Z,4.80
2022-12-07T22:06:49.372Z,4.73
2022-12-07T22:09:18.953Z,5.10
2022-12-07T22:11:47.081Z,5.02
2022-12-07T22:14:32.915Z,4.97
2022-12-07T22:17:00.418Z,4.95
2022-12-07T22:19:27.967Z,4.86
2022-12-07T22:21:55.387Z,5.17
2022-12-07T22:24:22.809Z,5.30
2022-12-07T22:26:50.102Z,5.26
2022-12-07T22:29:17.654Z,5.38
2022-12-07T22:31:47.930Z,5.49
2022-12-07T22:34:19.562Z,5.37
2022-12-07T22:36:46.954Z,5.42
2022-12-07T22:39:14.464Z,5.49
